Time;durP1;ratioP1;P1;durP2;ratioP2;P2;SDS_P1;SDS_P2;PMS_P1;PMS_P2;Temp;Humidity;BMP_temperature;BMP_pressure;BME280_temperature;BME280_humidity;BME280_pressure;Samples;Min_cycle;Max_cycle;Signal;HPM_P1;HPM_P2
2022/05/03 00:01:39;;;;;;;1.80;0.80;;;8.10;99.90;;;;;;4885784;29;20287;-77
2022/05/03 00:04:31;;;;;;;0.80;0.80;;;8.00;99.90;;;;;;4911092;29;20184;-80
2022/05/03 00:07:27;;;;;;;3.70;0.90;;;8.00;99.90;;;;;;4906933;29;20255;-79
2022/05/03 00:10:20;;;;;;;1.23;1.00;;;7.90;99.90;;;;;;4912852;29;20270;-78
2022/05/03 00:13:08;;;;;;;2.20;0.90;;;7.90;99.90;;;;;;4913794;29;20232;-79
2022/05/03 00:15:55;;;;;;;2.67;0.70;;;7.90;99.90;;;;;;4898469;29;20683;-80
2022/05/03 00:18:41;;;;;;;0.90;0.87;;;7.80;99.90;;;;;;4898053;29;20187;-79
2022/05/03 00:21:27;;;;;;;1.10;1.00;;;7.80;99.90;;;;;;4908477;29;20707;-80
2022/05/03 00:24:12;;;;;;;2.30;0.87;;;7.70;99.90;;;;;;4903966;29;20203;-79
2022/05/03 00:26:57;;;;;;;2.47;0.97;;;7.60;99.90;;;;;;4908321;29;20199;-78
2022/05/03 00:29:42;;;;;;;2.27;1.17;;;7.50;99.90;;;;;;4906459;29;20216;-79
2022/05/03 00:32:28;;;;;;;0.80;0.80;;;7.50;99.90;;;;;;4907216;29;20235;-79
2022/05/03 00:35:13;;;;;;;0.80;0.80;;;7.50;99.90;;;;;;4904898;29;20195;-78
2022/05/03 00:37:58;;;;;;;1.07;0.90;;;7.40;99.90;;;;;;4906051;29;20191;-79
2022/05/03 00:40:50;;;;;;;0.90;0.83;;;7.40;99.90;;;;;;4904366;29;20231;-77
2022/05/03 00:43:58;;;;;;;2.47;1.00;;;7.40;99.90;;;;;;4907654;29;20265;-77
2022/05/03 00:46:43;;;;;;;0.83;0.80;;;7.30;99.90;;;;;;4901203;29;20192;-79
2022/05/03 00:49:44;;;;;;;0.93;0.83;;;7.30;99.90;;;;;;4908060;29;20834;-78
2022/05/03 00:52:49;;;;;;;0.90;0.90;;;7.20;99.90;;;;;;4906354;29;20283;-78
2022/05/03 00:55:33;;;;;;;0.97;0.93;;;7.20;99.90;;;;;;4907421;29;20255;-77
2022/05/03 00:58:46;;;;;;;1.20;1.10;;;7.20;99.90;;;;;;4905678;29;20204;-78
2022/05/03 01:02:03;;;;;;;1.23;0.90;;;7.10;99.90;;;;;;4904891;29;20270;-79
2022/05/03 01:05:10;;;;;;;2.80;0.90;;;7.00;99.90;;;;;;4905757;29;20195;-78
2022/05/03 01:08:04;;;;;;;0.80;0.80;;;7.00;99.90;;;;;;4904180;29;20228;-78
2022/05/03 01:11:26;;;;;;;1.10;1.00;;;6.90;99.90;;;;;;4908955;29;20227;-79
2022/05/03 01:14:48;;;;;;;1.53;0.80;;;6.90;99.90;;;;;;4910332;29;20223;-80
2022/05/03 01:17:35;;;;;;;0.90;0.90;;;6.80;99.90;;;;;;4906329;29;20299;-78
2022/05/03 01:20:42;;;;;;;1.83;1.00;;;6.80;99.90;;;;;;4903358;29;20200;-79
2022/05/03 01:23:57;;;;;;;3.80;0.90;;;6.70;99.90;;;;;;4903236;29;20214;-78
2022/05/03 01:26:53;;;;;;;1.10;1.00;;;6.60;99.90;;;;;;4903601;29;20265;-81
2022/05/03 01:29:40;;;;;;;2.00;0.80;;;6.60;99.90;;;;;;4904180;29;20221;-78
2022/05/03 01:32:25;;;;;;;1.03;0.80;;;6.60;99.90;;;;;;4905702;29;20304;-78
2022/05/03 01:35:12;;;;;;;2.10;1.10;;;6.50;99.90;;;;;;4908345;29;20244;-78
2022/05/03 01:38:02;;;;;;;0.90;0.80;;;6.40;99.90;;;;;;4907491;29;20272;-78
2022/05/03 01:41:06;;;;;;;0.90;0.90;;;6.30;99.90;;;;;;4904445;29;20219;-78
2022/05/03 01:43:59;;;;;;;1.63;1.00;;;6.30;99.90;;;;;;4907659;29;20220;-78
2022/05/03 01:46:44;;;;;;;1.37;0.83;;;6.30;99.90;;;;;;4907123;29;20770;-78
2022/05/03 01:53:09;;;;;;;1.30;0.77;;;6.20;99.90;;;;;;4909376;29;20747;-78
2022/05/03 01:56:32;;;;;;;1.20;1.10;;;6.20;99.90;;;;;;4907817;29;20299;-79
2022/05/03 01:59:45;;;;;;;0.80;0.80;;;6.10;99.90;;;;;;4904093;29;20291;-77
2022/05/03 02:02:58;;;;;;;2.27;1.00;;;6.10;99.90;;;;;;4906653;29;20813;-79
2022/05/03 02:05:58;;;;;;;2.47;0.90;;;6.10;99.90;;;;;;4908085;29;20227;-80
2022/05/03 02:09:00;;;;;;;1.07;1.07;;;6.00;99.90;;;;;;4906041;29;20252;-78
2022/05/03 02:11:47;;;;;;;0.90;0.90;;;6.00;99.90;;;;;;4898289;29;20251;-78
2022/05/03 02:14:45;;;;;;;0.80;0.80;;;6.00;99.90;;;;;;4903580;29;20277;-77
2022/05/03 02:17:32;;;;;;;1.23;1.10;;;5.90;99.90;;;;;;4908407;29;20225;-78
2022/05/03 02:20:29;;;;;;;0.90;0.90;;;5.90;99.90;;;;;;4908135;29;20209;-78
2022/05/03 02:24:02;;;;;;;;;;;;;;;;;;;;;
2022/05/03 02:27:25;;;;;;;1.23;1.00;;;5.80;99.90;;;;;;4915161;29;20355;-79
2022/05/03 02:30:33;;;;;;;1.20;1.10;;;5.80;99.90;;;;;;4873112;29;20219;-79
2022/05/03 02:33:42;;;;;;;1.10;1.10;;;5.80;99.90;;;;;;4888364;29;20224;-78
2022/05/03 02:36:29;;;;;;;3.03;1.20;;;5.70;99.90;;;;;;4911692;29;20272;-79
2022/05/03 02:39:19;;;;;;;1.73;1.20;;;5.70;99.90;;;;;;4906338;29;20204;-78
2022/05/03 02:42:08;;;;;;;1.50;1.00;;;5.60;99.90;;;;;;4908205;29;20219;-78
2022/05/03 02:44:55;;;;;;;0.90;0.90;;;5.60;99.90;;;;;;4904330;29;20195;-79
2022/05/03 02:48:01;;;;;;;3.33;1.20;;;5.60;99.90;;;;;;4908090;29;20206;-79
2022/05/03 02:50:54;;;;;;;1.23;1.13;;;5.60;99.90;;;;;;4907084;29;20297;-78
2022/05/03 02:53:47;;;;;;;1.40;1.30;;;5.60;99.90;;;;;;4910950;29;20236;-78
2022/05/03 02:56:52;;;;;;;1.90;1.23;;;5.50;99.90;;;;;;4908621;29;20203;-78
2022/05/03 03:03:24;;;;;;;1.67;1.10;;;5.40;99.90;;;;;;4886677;29;20233;-79
2022/05/03 03:06:20;;;;;;;1.97;1.30;;;5.40;99.90;;;;;;4907345;29;20199;-78
2022/05/03 03:09:07;;;;;;;2.53;1.33;;;5.40;99.90;;;;;;4904901;29;20251;-79
2022/05/03 03:12:25;;;;;;;2.30;1.60;;;5.40;99.90;;;;;;4904387;29;20223;-78
2022/05/03 03:15:10;;;;;;;2.20;1.37;;;5.50;99.90;;;;;;4891069;29;20207;-78
2022/05/03 03:17:59;;;;;;;2.30;1.50;;;5.50;99.90;;;;;;4904395;29;20236;-78
2022/05/03 03:20:45;;;;;;;1.63;1.40;;;5.40;99.90;;;;;;4905885;29;20223;-78
2022/05/03 03:23:31;;;;;;;2.77;1.60;;;5.40;99.90;;;;;;4906073;29;20735;-77
2022/05/03 03:26:20;;;;;;;5.90;1.30;;;5.30;99.90;;;;;;4907747;29;20191;-78
2022/05/03 03:29:07;;;;;;;2.87;1.70;;;5.30;99.90;;;;;;4904720;29;20215;-78
2022/05/03 03:31:52;;;;;;;1.80;1.53;;;5.30;99.90;;;;;;4903586;29;20231;-79
2022/05/03 03:34:40;;;;;;;4.60;1.60;;;5.30;99.90;;;;;;4905317;29;20238;-78
2022/05/03 03:37:28;;;;;;;4.00;1.43;;;5.30;99.90;;;;;;4904748;29;20203;-78
2022/05/03 03:40:15;;;;;;;1.73;1.37;;;5.20;99.90;;;;;;4903583;29;20196;-78
2022/05/03 03:43:00;;;;;;;4.80;1.60;;;5.20;99.90;;;;;;4903360;29;20214;-78
2022/05/03 03:45:44;;;;;;;3.73;1.63;;;5.10;99.90;;;;;;4902667;29;20213;-79
2022/05/03 03:48:29;;;;;;;2.00;1.30;;;5.10;99.90;;;;;;4906926;29;20224;-78
2022/05/03 03:51:14;;;;;;;2.20;1.20;;;5.20;99.90;;;;;;4907258;29;20231;-77
2022/05/03 03:53:59;;;;;;;2.13;1.80;;;5.10;99.90;;;;;;4910896;29;20262;-78
2022/05/03 03:56:45;;;;;;;2.67;1.43;;;5.20;99.90;;;;;;4912628;29;20192;-77
2022/05/03 03:59:31;;;;;;;4.27;1.57;;;5.20;99.90;;;;;;4911221;29;20227;-78
2022/05/03 04:02:16;;;;;;;3.70;1.70;;;5.20;99.90;;;;;;4894646;29;20254;-78
2022/05/03 04:05:02;;;;;;;5.33;1.63;;;5.10;99.90;;;;;;4904678;29;20210;-78
2022/05/03 04:07:47;;;;;;;3.80;1.50;;;5.10;99.90;;;;;;4905448;29;20262;-77
2022/05/03 04:10:32;;;;;;;5.70;1.60;;;5.10;99.90;;;;;;4905077;29;20257;-78
2022/05/03 04:13:16;;;;;;;1.83;1.70;;;5.10;99.90;;;;;;4907978;29;20225;-78
2022/05/03 04:16:03;;;;;;;2.33;1.70;;;5.10;99.90;;;;;;4894844;29;20275;-78
2022/05/03 04:18:47;;;;;;;2.33;1.70;;;5.10;99.90;;;;;;4908076;29;20242;-78
2022/05/03 04:21:32;;;;;;;3.53;1.87;;;5.00;99.90;;;;;;4905940;29;20628;-78
2022/05/03 04:24:17;;;;;;;2.77;1.70;;;5.00;99.90;;;;;;4901864;29;20319;-77
2022/05/03 04:27:01;;;;;;;2.07;1.70;;;5.00;99.90;;;;;;4903280;29;20260;-77
2022/05/03 04:29:45;;;;;;;6.53;1.90;;;4.90;99.90;;;;;;4904813;29;20290;-78
2022/05/03 04:32:33;;;;;;;6.00;1.67;;;4.90;99.90;;;;;;4903574;29;20232;-77
2022/05/03 04:35:19;;;;;;;2.00;1.50;;;4.90;99.90;;;;;;4904784;29;20211;-77
2022/05/03 04:38:03;;;;;;;4.20;1.77;;;4.90;99.90;;;;;;4905139;29;20230;-78
2022/05/03 04:40:47;;;;;;;4.30;1.93;;;4.90;99.90;;;;;;4902976;29;20214;-78
2022/05/03 04:43:31;;;;;;;3.70;2.00;;;4.90;99.90;;;;;;4905296;29;20668;-77
2022/05/03 04:46:15;;;;;;;4.63;2.00;;;4.90;99.90;;;;;;4904880;29;20208;-79
2022/05/03 04:49:00;;;;;;;3.53;1.97;;;5.00;99.90;;;;;;4907524;29;20229;-79
2022/05/03 04:51:45;;;;;;;3.83;2.37;;;5.00;99.90;;;;;;4905974;29;20233;-79
2022/05/03 04:54:29;;;;;;;4.90;2.00;;;5.00;99.90;;;;;;4904537;29;20249;-79
2022/05/03 04:57:14;;;;;;;2.57;1.90;;;5.00;99.90;;;;;;4901046;29;20199;-78
2022/05/03 05:00:00;;;;;;;4.47;2.43;;;5.10;99.90;;;;;;4901102;29;20244;-77
2022/05/03 05:02:44;;;;;;;8.03;2.30;;;5.10;99.90;;;;;;4897604;29;20250;-78
2022/05/03 05:05:28;;;;;;;14.70;2.80;;;5.20;99.90;;;;;;4897118;29;20283;-77
2022/05/03 05:08:12;;;;;;;9.53;2.70;;;5.20;99.90;;;;;;4894052;29;20207;-78
2022/05/03 05:10:56;;;;;;;4.17;2.57;;;5.20;99.90;;;;;;4901396;29;20347;-78
2022/05/03 05:13:41;;;;;;;6.63;2.97;;;5.30;99.90;;;;;;4900847;29;20223;-77
2022/05/03 05:16:25;;;;;;;6.43;2.80;;;5.30;99.90;;;;;;4900043;29;20190;-77
2022/05/03 05:19:10;;;;;;;6.43;2.77;;;5.40;99.90;;;;;;4900894;29;20224;-78
2022/05/03 05:21:54;;;;;;;6.17;2.70;;;5.40;99.90;;;;;;4901989;29;20267;-77
2022/05/03 05:24:38;;;;;;;3.83;2.87;;;5.40;99.90;;;;;;4905590;29;20264;-78
2022/05/03 05:27:22;;;;;;;6.30;3.07;;;5.50;99.90;;;;;;4898690;29;20213;-78
2022/05/03 05:30:08;;;;;;;5.63;3.30;;;5.60;99.90;;;;;;4897860;29;20199;-78
2022/05/03 05:32:52;;;;;;;6.70;3.40;;;5.60;99.90;;;;;;4908621;29;20217;-78
2022/05/03 05:35:37;;;;;;;5.63;3.53;;;5.70;99.90;;;;;;4908798;29;20221;-78
2022/05/03 05:38:22;;;;;;;8.87;3.60;;;5.80;99.90;;;;;;4890928;29;20190;-78
2022/05/03 05:41:14;;;;;;;5.57;3.97;;;5.90;99.90;;;;;;4907776;29;20259;-78
2022/05/03 05:43:58;;;;;;;7.57;3.97;;;5.90;99.90;;;;;;4898825;29;20219;-78
2022/05/03 05:46:42;;;;;;;6.87;4.07;;;6.00;99.90;;;;;;4904409;29;20195;-78
2022/05/03 05:49:26;;;;;;;6.83;3.70;;;6.20;99.90;;;;;;4898083;29;20196;-77
2022/05/03 05:55:14;;;;;;;9.67;3.70;;;6.40;99.90;;;;;;4902231;29;20318;-79
2022/05/03 05:57:58;;;;;;;10.50;3.47;;;6.60;99.90;;;;;;4901100;29;20196;-79
2022/05/03 06:00:42;;;;;;;10.83;3.40;;;6.70;99.90;;;;;;4898530;29;20242;-79
2022/05/03 06:03:28;;;;;;;7.83;3.73;;;6.80;99.90;;;;;;4908558;29;20231;-80
2022/05/03 06:06:12;;;;;;;8.13;3.77;;;6.90;99.90;;;;;;4900281;29;20192;-80
2022/05/03 06:08:56;;;;;;;7.90;3.47;;;7.10;99.90;;;;;;4903538;29;20184;-79
2022/05/03 06:11:40;;;;;;;8.00;3.47;;;7.20;99.90;;;;;;4911398;29;20267;-79
2022/05/03 06:14:25;;;;;;;6.43;3.53;;;7.20;99.90;;;;;;4912954;29;20373;-79
2022/05/03 06:17:09;;;;;;;5.87;3.80;;;7.40;99.90;;;;;;4909170;29;20192;-79
2022/05/03 06:19:53;;;;;;;7.80;3.30;;;7.40;99.90;;;;;;4903712;29;20192;-79
2022/05/03 06:22:39;;;;;;;6.07;4.03;;;7.50;99.90;;;;;;4902703;29;20258;-80
2022/05/03 06:25:23;;;;;;;4.67;3.63;;;7.60;99.90;;;;;;4904769;29;20263;-80
2022/05/03 06:28:07;;;;;;;5.77;3.50;;;7.70;99.90;;;;;;4904347;29;20204;-80
2022/05/03 06:30:51;;;;;;;6.53;4.03;;;7.90;99.90;;;;;;4904558;29;20248;-80
2022/05/03 06:33:36;;;;;;;6.40;3.90;;;8.10;99.90;;;;;;4906193;29;20243;-79
2022/05/03 06:36:23;;;;;;;8.20;4.43;;;8.20;99.90;;;;;;4900302;29;20204;-79
2022/05/03 06:39:08;;;;;;;7.60;4.53;;;8.30;99.90;;;;;;4901688;29;20657;-78
2022/05/03 06:41:52;;;;;;;8.40;5.53;;;8.50;99.90;;;;;;4897700;29;20239;-80
2022/05/03 06:44:37;;;;;;;10.93;6.67;;;8.60;99.90;;;;;;4904060;29;20557;-79
2022/05/03 06:47:22;;;;;;;28.97;9.33;;;8.70;99.90;;;;;;4899912;29;20189;-79
2022/05/03 06:50:08;;;;;;;10.00;8.00;;;8.80;99.90;;;;;;4898675;29;20268;-80
2022/05/03 06:52:52;;;;;;;15.33;8.27;;;9.00;99.90;;;;;;4903463;29;20200;-80
2022/05/03 06:55:37;;;;;;;20.23;9.67;;;9.20;99.90;;;;;;4901480;29;20213;-79
2022/05/03 06:58:28;;;;;;;19.07;9.70;;;9.30;99.90;;;;;;4903348;29;20188;-79
2022/05/03 07:01:14;;;;;;;18.33;10.13;;;9.40;99.90;;;;;;4918984;29;20264;-79
2022/05/03 07:03:59;;;;;;;22.60;10.17;;;9.50;99.90;;;;;;4906697;29;20741;-79
2022/05/03 07:06:44;;;;;;;14.73;10.90;;;9.60;99.90;;;;;;4898099;29;20239;-79
2022/05/03 07:09:28;;;;;;;12.70;10.67;;;9.60;99.90;;;;;;4905870;29;20280;-80
2022/05/03 07:12:12;;;;;;;17.83;11.27;;;9.70;99.90;;;;;;4897057;29;20224;-80
2022/05/03 07:14:58;;;;;;;12.63;11.30;;;9.70;99.90;;;;;;4898425;29;20223;-79
2022/05/03 07:23:51;;;;;;;15.63;11.27;;;9.80;99.90;;;;;;4885328;29;20266;-81
2022/05/03 07:26:37;;;;;;;16.90;11.90;;;10.00;99.90;;;;;;4899700;29;20192;-80
2022/05/03 07:29:21;;;;;;;16.43;12.17;;;10.10;99.90;;;;;;4899559;29;20555;-80
2022/05/03 07:32:06;;;;;;;16.33;11.67;;;10.20;99.90;;;;;;4886754;29;20227;-80
2022/05/03 07:34:50;;;;;;;20.37;11.80;;;10.30;99.90;;;;;;4898089;29;20718;-81
2022/05/03 07:37:34;;;;;;;18.33;11.90;;;10.50;99.90;;;;;;4893582;29;20240;-82
2022/05/03 07:40:19;;;;;;;14.70;11.40;;;10.60;99.90;;;;;;4899379;29;20275;-82
2022/05/03 07:43:05;;;;;;;14.77;11.33;;;10.70;99.90;;;;;;4905875;29;20178;-82
2022/05/03 07:45:49;;;;;;;17.93;12.00;;;10.70;99.90;;;;;;4898706;29;20184;-82
2022/05/03 07:48:33;;;;;;;15.83;11.83;;;10.70;99.90;;;;;;4900242;29;20232;-82
2022/05/03 07:51:19;;;;;;;14.30;11.67;;;10.80;99.90;;;;;;4898214;29;20251;-81
2022/05/03 07:54:03;;;;;;;16.10;11.53;;;10.90;99.90;;;;;;4900749;29;20211;-83
2022/05/03 07:56:48;;;;;;;14.80;11.63;;;11.00;99.90;;;;;;4902454;29;20720;-81
2022/05/03 07:59:33;;;;;;;14.33;10.93;;;11.00;99.90;;;;;;4885352;29;20200;-79
2022/05/03 08:02:17;;;;;;;39.20;13.20;;;11.10;99.90;;;;;;4897071;29;20231;-80
2022/05/03 08:05:02;;;;;;;15.73;11.07;;;11.20;99.90;;;;;;4900886;29;20192;-79
2022/05/03 08:07:47;;;;;;;16.20;10.37;;;11.30;99.90;;;;;;4896926;29;20337;-80
2022/05/03 08:10:31;;;;;;;13.87;10.00;;;11.40;99.90;;;;;;4903278;29;20196;-80
2022/05/03 08:13:15;;;;;;;16.30;9.83;;;11.50;99.90;;;;;;4904305;29;20247;-79
2022/05/03 08:16:01;;;;;;;15.13;10.43;;;11.60;99.90;;;;;;4900778;29;20212;-80
2022/05/03 08:18:47;;;;;;;12.37;9.87;;;11.60;99.90;;;;;;4901998;29;20200;-78
2022/05/03 08:21:35;;;;;;;16.00;9.07;;;11.70;99.90;;;;;;4901957;29;20232;-79
2022/05/03 08:24:20;;;;;;;10.87;9.13;;;11.80;99.90;;;;;;4901809;29;20200;-78
2022/05/03 08:27:04;;;;;;;16.03;9.70;;;11.90;99.90;;;;;;4903540;29;20200;-78
2022/05/03 08:29:48;;;;;;;13.13;9.50;;;12.00;99.90;;;;;;4907125;29;20211;-80
2022/05/03 08:32:33;;;;;;;12.83;9.47;;;12.10;99.90;;;;;;4905308;29;20247;-80
2022/05/03 08:35:21;;;;;;;14.27;9.13;;;12.20;99.90;;;;;;4902512;29;20300;-79
2022/05/03 08:44:12;;;;;;;11.07;9.07;;;12.50;99.90;;;;;;4904547;29;20204;-80
2022/05/03 08:46:59;;;;;;;34.33;11.30;;;12.60;99.90;;;;;;4904213;29;20196;-82
2022/05/03 08:50:00;;;;;;;14.97;9.63;;;12.60;99.90;;;;;;4891966;29;20232;-83
2022/05/03 08:52:44;;;;;;;12.40;9.53;;;12.70;99.90;;;;;;4902281;29;20359;-82
2022/05/03 08:55:29;;;;;;;16.93;8.80;;;12.70;99.90;;;;;;4903816;29;20199;-81
2022/05/03 08:58:17;;;;;;;11.73;8.90;;;12.70;99.90;;;;;;4904547;29;20180;-81
2022/05/03 09:01:03;;;;;;;15.67;8.60;;;12.80;99.90;;;;;;4903763;29;20253;-83
2022/05/03 09:03:51;;;;;;;9.43;7.67;;;12.90;99.90;;;;;;4903063;29;20203;-80
2022/05/03 09:06:46;;;;;;;11.30;6.97;;;13.00;99.90;;;;;;4898078;29;20275;-83
2022/05/03 09:09:31;;;;;;;14.80;7.77;;;13.00;99.90;;;;;;4903362;29;20200;-82
2022/05/03 09:12:30;;;;;;;13.13;9.47;;;13.00;99.90;;;;;;4909367;29;20307;-82
2022/05/03 09:15:15;;;;;;;12.30;9.63;;;13.00;99.90;;;;;;4901949;29;20243;-82
2022/05/03 09:18:01;;;;;;;12.10;9.60;;;13.00;99.90;;;;;;4902336;29;20196;-81
2022/05/03 09:24:12;;;;;;;13.73;9.80;;;13.10;99.90;;;;;;4901897;29;20253;-82
2022/05/03 09:26:57;;;;;;;14.60;9.73;;;13.10;99.90;;;;;;4903265;29;20203;-82
2022/05/03 09:30:03;;;;;;;16.23;8.97;;;13.20;99.90;;;;;;4897573;29;20199;-82
2022/05/03 09:32:52;;;;;;;9.80;7.87;;;13.30;99.90;;;;;;4903361;29;20203;-82
2022/05/03 09:35:36;;;;;;;10.03;7.30;;;13.30;99.90;;;;;;4893802;29;20258;-81
2022/05/03 09:38:25;;;;;;;9.90;7.33;;;13.20;99.90;;;;;;4901494;29;20270;-82
2022/05/03 09:41:14;;;;;;;12.23;7.47;;;13.20;99.90;;;;;;4908405;29;20208;-81
2022/05/03 09:44:08;;;;;;;7.93;6.30;;;13.30;99.90;;;;;;4897948;29;20208;-83
2022/05/03 09:46:54;;;;;;;7.00;5.60;;;13.30;99.90;;;;;;4898916;29;20199;-83
2022/05/03 09:49:42;;;;;;;7.70;5.83;;;13.40;99.90;;;;;;4908118;29;20225;-81
2022/05/03 09:52:41;;;;;;;8.83;6.60;;;13.40;99.90;;;;;;4901061;29;20252;-81
2022/05/03 09:55:31;;;;;;;8.80;6.93;;;13.40;99.90;;;;;;4888855;29;20276;-81
2022/05/03 09:58:17;;;;;;;7.63;5.97;;;13.40;99.90;;;;;;4902796;29;20327;-81
2022/05/03 10:01:02;;;;;;;8.20;5.87;;;13.60;99.90;;;;;;4890158;29;20275;-81
2022/05/03 10:03:47;;;;;;;7.63;4.70;;;13.70;99.90;;;;;;4908491;29;20230;-80
2022/05/03 10:06:33;;;;;;;7.17;5.70;;;13.80;99.90;;;;;;4906515;29;20315;-82
2022/05/03 10:09:18;;;;;;;9.60;5.60;;;13.90;99.90;;;;;;4904167;29;20200;-82
2022/05/03 10:12:05;;;;;;;11.23;7.07;;;13.90;99.90;;;;;;4903724;29;20275;-82
2022/05/03 10:14:49;;;;;;;12.00;7.67;;;14.00;99.90;;;;;;4913886;29;20273;-81
2022/05/03 10:20:55;;;;;;;9.70;7.80;;;14.00;99.90;;;;;;4910495;29;20212;-81
2022/05/03 10:23:41;;;;;;;9.27;7.93;;;14.10;99.90;;;;;;4902087;29;20241;-82
2022/05/03 10:27:01;;;;;;;8.43;7.03;;;14.10;99.90;;;;;;4905381;29;20208;-82
2022/05/03 10:30:16;;;;;;;11.07;7.77;;;14.10;99.90;;;;;;4905649;29;20297;-83
2022/05/03 10:33:25;;;;;;;12.90;8.97;;;14.10;99.90;;;;;;4903656;29;20192;-81
2022/05/03 10:36:35;;;;;;;9.87;6.57;;;14.20;99.90;;;;;;4907024;29;20228;-82
2022/05/03 10:39:23;;;;;;;15.67;8.67;;;14.20;99.90;;;;;;4904157;29;20229;-81
2022/05/03 10:42:13;;;;;;;11.50;8.30;;;14.20;99.90;;;;;;4905731;29;20247;-83
2022/05/03 10:45:01;;;;;;;11.77;9.23;;;14.20;99.90;;;;;;4901729;29;20733;-83
2022/05/03 10:47:52;;;;;;;11.40;8.93;;;14.30;99.90;;;;;;4908834;29;20196;-84
2022/05/03 10:50:38;;;;;;;15.23;9.83;;;14.30;99.90;;;;;;4902016;29;20236;-81
2022/05/03 10:53:25;;;;;;;14.50;11.53;;;14.40;99.90;;;;;;4900131;29;20247;-82
2022/05/03 10:56:13;;;;;;;14.00;10.33;;;14.40;99.90;;;;;;4905957;29;20192;-82
2022/05/03 10:59:10;;;;;;;9.17;7.73;;;14.40;99.90;;;;;;4902862;29;20256;-82
2022/05/03 11:02:06;;;;;;;9.97;8.40;;;14.30;99.90;;;;;;4903248;29;20227;-80
2022/05/03 11:05:16;;;;;;;13.77;9.87;;;14.30;99.90;;;;;;4904273;29;20203;-81
2022/05/03 11:08:22;;;;;;;13.03;10.07;;;14.20;99.90;;;;;;4901501;29;20204;-80
2022/05/03 11:11:06;;;;;;;13.80;9.63;;;14.20;99.90;;;;;;4897545;29;20795;-80
2022/05/03 11:13:51;;;;;;;14.80;9.43;;;14.10;99.90;;;;;;4912106;29;20207;-80
2022/05/03 11:16:36;;;;;;;13.20;9.77;;;14.10;99.90;;;;;;4902956;29;20192;-79
2022/05/03 11:19:22;;;;;;;10.77;9.03;;;14.00;99.90;;;;;;4901378;29;20260;-80
2022/05/03 11:22:13;;;;;;;11.63;8.83;;;13.90;99.90;;;;;;4901908;29;20241;-80
2022/05/03 11:25:02;;;;;;;11.80;9.70;;;13.80;99.90;;;;;;4905564;29;20195;-81
2022/05/03 11:27:48;;;;;;;10.43;8.70;;;13.80;99.90;;;;;;4904507;29;20237;-80
2022/05/03 11:30:32;;;;;;;13.80;8.57;;;13.90;99.90;;;;;;4904528;29;20711;-82
2022/05/03 11:33:18;;;;;;;12.93;9.80;;;13.90;99.90;;;;;;4900739;29;20221;-80
2022/05/03 11:36:03;;;;;;;18.00;10.33;;;14.00;99.90;;;;;;4907453;29;20209;-81
2022/05/03 11:38:49;;;;;;;12.67;8.37;;;14.10;99.90;;;;;;4908443;29;20185;-81
2022/05/03 11:41:36;;;;;;;13.53;9.10;;;14.20;99.90;;;;;;4902194;29;20267;-79
2022/05/03 11:44:20;;;;;;;11.83;8.50;;;14.20;99.90;;;;;;4901314;29;20193;-79
2022/05/03 11:47:05;;;;;;;9.70;8.47;;;14.20;99.90;;;;;;4899577;29;20196;-80
2022/05/03 11:49:51;;;;;;;11.77;8.30;;;14.20;99.90;;;;;;4904738;29;20639;-80
2022/05/03 11:56:01;;;;;;;9.80;8.33;;;14.20;99.90;;;;;;4903603;29;20307;-80
2022/05/03 11:58:46;;;;;;;9.40;7.30;;;14.20;99.90;;;;;;4898014;29;20260;-81
2022/05/03 12:01:34;;;;;;;10.03;7.60;;;14.20;99.90;;;;;;4906190;29;20297;-80
2022/05/03 12:04:20;;;;;;;9.47;7.20;;;14.20;99.90;;;;;;4903528;29;20314;-80
2022/05/03 12:07:04;;;;;;;12.07;7.40;;;14.20;99.90;;;;;;4903613;29;20204;-80
2022/05/03 12:09:49;;;;;;;9.80;7.30;;;14.20;99.90;;;;;;4896862;29;20303;-79
2022/05/03 12:12:42;;;;;;;9.93;5.90;;;14.20;99.90;;;;;;4902140;29;20277;-79
2022/05/03 12:15:28;;;;;;;13.67;6.87;;;14.20;99.90;;;;;;4901793;29;20192;-79
2022/05/03 12:18:31;;;;;;;8.73;6.63;;;14.20;99.90;;;;;;4898181;29;20209;-78
2022/05/03 12:21:21;;;;;;;9.43;6.80;;;14.20;99.90;;;;;;4894124;29;20207;-80
2022/05/03 12:24:07;;;;;;;7.57;5.67;;;14.30;99.90;;;;;;4895928;29;20208;-77
2022/05/03 12:26:52;;;;;;;9.30;5.60;;;14.20;99.90;;;;;;4894543;29;20199;-76
2022/05/03 12:29:42;;;;;;;10.60;6.33;;;14.30;99.90;;;;;;4893124;29;20292;-81
2022/05/03 12:32:33;;;;;;;11.53;6.37;;;14.30;99.90;;;;;;4893069;29;20264;-78
2022/05/03 12:35:28;;;;;;;10.00;5.93;;;14.40;99.90;;;;;;4887628;29;20253;-78
2022/05/03 12:38:15;;;;;;;10.47;6.40;;;14.40;99.90;;;;;;4898580;29;20220;-78
2022/05/03 12:41:00;;;;;;;11.40;6.70;;;14.50;99.90;;;;;;4897415;29;20603;-77
2022/05/03 12:43:45;;;;;;;11.63;7.20;;;14.50;99.90;;;;;;4893365;29;20280;-77
2022/05/03 12:46:30;;;;;;;13.20;6.10;;;14.50;99.90;;;;;;4890794;29;20200;-78
2022/05/03 12:49:14;;;;;;;9.33;6.07;;;14.60;99.90;;;;;;4894146;29;20225;-78
2022/05/03 12:51:58;;;;;;;8.73;5.63;;;14.50;99.90;;;;;;4877007;29;20581;-78
2022/05/03 12:54:44;;;;;;;7.87;4.80;;;14.60;99.90;;;;;;4864100;29;20234;-77
2022/05/03 13:00:33;;;;;;;9.93;5.07;;;14.60;99.90;;;;;;4897248;29;20260;-78
2022/05/03 13:03:18;;;;;;;9.03;4.80;;;14.60;99.90;;;;;;4891764;29;20184;-77
2022/05/03 13:06:03;;;;;;;12.43;4.87;;;14.60;99.90;;;;;;4899823;29;20359;-77
2022/05/03 13:08:49;;;;;;;9.33;4.30;;;14.60;99.90;;;;;;4893627;29;20321;-78
2022/05/03 13:11:34;;;;;;;8.50;4.77;;;14.70;99.90;;;;;;4908661;29;20244;-78
2022/05/03 13:14:18;;;;;;;10.90;5.07;;;14.80;99.90;;;;;;4900843;29;20232;-77
2022/05/03 13:17:03;;;;;;;9.30;4.77;;;14.80;99.90;;;;;;4892164;29;20196;-78
2022/05/03 13:19:47;;;;;;;6.93;4.97;;;14.80;99.90;;;;;;4900157;29;20188;-77
2022/05/03 13:22:32;;;;;;;9.00;4.80;;;14.80;99.90;;;;;;4894634;29;20219;-78
2022/05/03 13:25:17;;;;;;;9.07;4.87;;;14.80;99.90;;;;;;4884734;29;20243;-77
2022/05/03 13:28:02;;;;;;;9.43;5.17;;;14.90;99.90;;;;;;4891931;29;20260;-78
2022/05/03 13:30:47;;;;;;;12.70;5.27;;;14.90;99.90;;;;;;4893528;29;20219;-78
2022/05/03 13:33:31;;;;;;;10.40;4.50;;;14.80;99.90;;;;;;4901728;29;20298;-78
2022/05/03 13:42:21;;;;;;;10.97;4.60;;;14.80;99.90;;;;;;4894516;29;20268;-79
2022/05/03 13:45:05;;;;;;;7.17;4.20;;;14.80;99.90;;;;;;4895592;29;20277;-78
2022/05/03 13:47:50;;;;;;;7.77;4.27;;;14.70;99.90;;;;;;4897538;29;20199;-78
2022/05/03 13:50:34;;;;;;;8.40;4.53;;;14.60;99.90;;;;;;4900961;29;20208;-78
2022/05/03 13:53:18;;;;;;;10.90;4.50;;;14.60;99.90;;;;;;4898897;29;20252;-79
2022/05/03 13:56:04;;;;;;;9.87;4.63;;;14.60;99.90;;;;;;4895394;29;20199;-79
2022/05/03 13:58:48;;;;;;;6.83;3.63;;;14.70;99.90;;;;;;4888222;29;20183;-79
2022/05/03 14:01:33;;;;;;;7.30;3.87;;;14.70;99.90;;;;;;4902763;29;20235;-79
2022/05/03 14:04:17;;;;;;;9.07;3.97;;;14.70;99.90;;;;;;4901794;29;20204;-78
2022/05/03 14:07:02;;;;;;;5.63;3.23;;;14.60;99.90;;;;;;4893480;29;20196;-78
2022/05/03 14:09:46;;;;;;;6.13;3.30;;;14.60;99.90;;;;;;4890513;29;20195;-79
2022/05/03 14:12:31;;;;;;;7.50;3.83;;;14.60;99.90;;;;;;4895120;29;20276;-79
2022/05/03 14:15:15;;;;;;;7.03;3.30;;;14.60;99.90;;;;;;4893119;29;20219;-79
2022/05/03 14:18:00;;;;;;;7.73;3.23;;;14.60;99.90;;;;;;4900958;29;20207;-79
2022/05/03 14:20:44;;;;;;;5.70;2.80;;;14.70;99.90;;;;;;4893610;29;20224;-79
2022/05/03 14:23:29;;;;;;;5.13;2.93;;;14.80;99.90;;;;;;4893378;29;20261;-78
2022/05/03 14:26:13;;;;;;;11.20;3.77;;;14.80;99.90;;;;;;4891622;29;20200;-78
2022/05/03 14:28:57;;;;;;;7.23;3.90;;;14.80;99.90;;;;;;4902941;29;20191;-77
2022/05/03 14:31:43;;;;;;;5.07;3.17;;;14.80;99.90;;;;;;4901238;29;20219;-78
2022/05/03 14:34:27;;;;;;;9.10;3.37;;;14.70;99.90;;;;;;4897106;29;20355;-78
2022/05/03 14:37:11;;;;;;;8.13;2.97;;;14.80;99.90;;;;;;4893796;29;20320;-79
2022/05/03 14:39:56;;;;;;;9.67;3.20;;;14.80;99.90;;;;;;4897623;29;20205;-78
2022/05/03 14:42:40;;;;;;;7.47;3.43;;;14.80;99.90;;;;;;4902689;29;20270;-76
2022/05/03 14:45:24;;;;;;;7.33;2.90;;;14.80;99.90;;;;;;4901750;29;20229;-77
2022/05/03 14:48:09;;;;;;;3.87;2.60;;;14.80;99.90;;;;;;4895903;29;20203;-80
2022/05/03 14:50:54;;;;;;;7.57;3.00;;;14.70;99.90;;;;;;4900574;29;20663;-81
2022/05/03 14:53:38;;;;;;;8.20;2.83;;;14.70;99.90;;;;;;4899401;29;20216;-82
2022/05/03 15:05:33;;;;;;;7.37;2.93;;;14.80;99.90;;;;;;4899994;29;20231;-82
2022/05/03 15:08:18;;;;;;;8.67;2.83;;;14.90;99.90;;;;;;4904672;29;20248;-81
2022/05/03 15:11:02;;;;;;;3.83;2.43;;;14.90;99.90;;;;;;4901005;29;20224;-82
2022/05/03 15:13:46;;;;;;;5.47;2.80;;;15.00;99.90;;;;;;4906942;29;20260;-83
2022/05/03 15:16:31;;;;;;;11.80;2.77;;;15.00;99.90;;;;;;4899364;29;20548;-83
2022/05/03 15:19:15;;;;;;;4.70;2.50;;;15.10;99.90;;;;;;4903996;29;20257;-82
2022/05/03 15:22:00;;;;;;;8.57;2.27;;;15.10;99.90;;;;;;4898510;29;20356;-83
2022/05/03 15:24:45;;;;;;;4.57;2.10;;;15.10;99.90;;;;;;4895875;29;20244;-83
2022/05/03 15:27:29;;;;;;;4.20;2.10;;;15.10;99.90;;;;;;4900928;29;20700;-84
2022/05/03 15:30:16;;;;;;;7.83;2.10;;;15.10;99.90;;;;;;4907935;29;20590;-82